Schillplate — ZDJJ8 — position and weather

sailwx.info

Track history (hours):
 
Tides and Currents Weather Stations Pressure Air Temp Water Temp Dewpoint Dewpoint Depression Visibility Wind Speed Wind Dir Waves Ship Positions

Schillplate

Last reported at 2017-Aug-20 07:50 UTC. Time now 2017-Aug-22 20:33 UTC.
Position N 57°46' W 002°09'.

; draft 4.5 m.

Type: Cargo ship. MMSI: 236111603.

Date/timePositionNaut miles runAvg speedWind from/ knotsBaromVisibWave heightAir tempDewpointWater temp
2017-Aug-20 07:50N 57°46' W 002°09'3 9.7
2017-Aug-20 07:30N 57°45' W 002°03'5 9.4
2017-Aug-20 07:00N 57°45' W 001°55'5 9.7
2017-Aug-20 06:30N 57°43' W 001°46'510.1
2017-Aug-20 06:00N 57°41' W 001°38'510.5
2017-Aug-20 05:30N 57°38' W 001°30'196 9.8
2017-Aug-19 09:35N 54°34' E 000°32'110.8
2017-Aug-19 09:27N 54°33' E 000°33'510.8
2017-Aug-19 09:00N 54°28' E 000°35'18011.2
2017-Aug-18 17:00N 52°06' E 003°40'0 0.0
2017-Aug-18 16:30N 52°06' E 003°40'0 0.0
2017-Aug-18 16:00N 52°06' E 003°40'0 0.0
2017-Aug-18 15:30N 52°06' E 003°40'0 0.0
2017-Aug-18 15:00N 52°06' E 003°40'3 7.1
2017-Aug-18 14:30N 52°05' E 003°45'10 9.5
2017-Aug-18 13:31N 52°01' E 003°59'510.8
2017-Aug-18 13:00N 51°58' E 004°07'1 2.8
2017-Aug-18 12:30N 51°57' E 004°08'0 0.0
2017-Aug-18 12:00N 51°57' E 004°08'0 0.0
2017-Aug-18 11:30N 51°57' E 004°08'0 0.0
2017-Aug-18 11:00N 51°57' E 004°08'0 0.0
2017-Aug-18 10:30N 51°57' E 004°08'0 0.0
2017-Aug-18 10:00N 51°57' E 004°08'0 0.0
2017-Aug-18 09:30N 51°57' E 004°08'0 0.0
2017-Aug-18 09:00N 51°57' E 004°08'0 0.0
2017-Aug-18 08:30N 51°57' E 004°08'0 0.0
2017-Aug-18 08:00N 51°57' E 004°08'0 0.0
2017-Aug-18 07:30N 51°57' E 004°08'0 0.0
2017-Aug-18 07:00N 51°57' E 004°08'0 0.0
2017-Aug-18 06:30N 51°57' E 004°08'0 0.0
2017-Aug-18 06:00N 51°57' E 004°08'0 0.0
2017-Aug-18 05:30N 51°57' E 004°08'0 0.0
2017-Aug-18 05:00N 51°57' E 004°08'0 0.0
2017-Aug-18 04:30N 51°57' E 004°08'0 0.0
2017-Aug-18 04:00N 51°57' E 004°08'0 0.0
2017-Aug-18 03:30N 51°57' E 004°08'0 0.0
2017-Aug-18 03:00N 51°57' E 004°08'0 0.0
2017-Aug-18 02:30N 51°57' E 004°08'0 0.0
2017-Aug-18 02:00N 51°57' E 004°08'0 0.0
2017-Aug-18 01:30N 51°57' E 004°08'0 0.0
2017-Aug-18 01:00N 51°57' E 004°08'0 0.0
2017-Aug-18 00:30N 51°57' E 004°08'0 0.0
2017-Aug-18 00:00N 51°57' E 004°08'0 0.0
2017-Aug-17 23:30N 51°57' E 004°08'0 0.0
2017-Aug-17 23:00N 51°57' E 004°08'0 0.0
2017-Aug-17 22:30N 51°57' E 004°08'0 0.0
2017-Aug-17 22:00N 51°57' E 004°08'0 0.3
2017-Aug-17 21:31N 51°57' E 004°08'1 1.0
2017-Aug-17 21:00N 51°57' E 004°08'0 0.0
2017-Aug-17 20:28N 51°57' E 004°08'0 0.0
2017-Aug-17 20:00N 51°57' E 004°08'0 0.0
2017-Aug-17 19:30N 51°57' E 004°08'0 0.0
2017-Aug-17 19:00N 51°57' E 004°08'0 0.0
2017-Aug-17 18:30N 51°57' E 004°08'0 0.0
2017-Aug-17 18:00N 51°57' E 004°08'0 0.0
2017-Aug-17 17:30N 51°57' E 004°08'0 0.0
2017-Aug-17 17:00N 51°57' E 004°08'0 0.0
2017-Aug-17 16:30N 51°57' E 004°08'0 0.0
2017-Aug-17 16:00N 51°57' E 004°08'0 0.0
2017-Aug-17 15:30N 51°57' E 004°08'0 0.0
2017-Aug-17 15:00N 51°57' E 004°08'0 0.0
2017-Aug-17 14:30N 51°57' E 004°08'0 0.0
2017-Aug-17 14:00N 51°57' E 004°08'0 0.0
2017-Aug-17 13:29N 51°57' E 004°08'0 0.0
2017-Aug-17 13:00N 51°57' E 004°08'0 0.0
2017-Aug-17 12:30N 51°57' E 004°08'0 0.0
2017-Aug-17 12:00N 51°57' E 004°08'0 0.0
2017-Aug-17 11:30N 51°57' E 004°08'0 0.0
2017-Aug-17 11:00N 51°57' E 004°08'0 0.0
2017-Aug-17 10:30N 51°57' E 004°08'0 0.0
2017-Aug-17 10:00N 51°57' E 004°08'0 0.0
2017-Aug-17 09:27N 51°57' E 004°08'0 0.0
2017-Aug-17 09:00N 51°57' E 004°08'0 0.0
2017-Aug-17 08:28N 51°57' E 004°08'0 0.0
2017-Aug-17 08:00N 51°57' E 004°08'0 0.0
2017-Aug-17 07:30N 51°57' E 004°08'0 0.0
2017-Aug-17 07:00N 51°57' E 004°08'0 0.0
2017-Aug-17 06:30N 51°57' E 004°08'0 0.0
2017-Aug-17 06:00N 51°57' E 004°08'0 0.0
2017-Aug-17 05:30N 51°57' E 004°08'0 0.0
2017-Aug-17 05:00N 51°57' E 004°08'0 0.0
2017-Aug-17 04:30N 51°57' E 004°08'0 0.0
2017-Aug-17 04:00N 51°57' E 004°08'0 0.0
2017-Aug-17 03:30N 51°57' E 004°08'0 0.0
2017-Aug-17 03:00N 51°57' E 004°08'0 0.0
2017-Aug-17 02:28N 51°57' E 004°08'0 0.0
2017-Aug-17 02:00N 51°57' E 004°08'0 0.0
2017-Aug-17 01:30N 51°57' E 004°08'0 0.0
2017-Aug-17 01:00N 51°57' E 004°08'0 0.0
2017-Aug-17 00:30N 51°57' E 004°08'0 0.0
2017-Aug-17 00:00N 51°57' E 004°08'0 0.0
2017-Aug-16 23:30N 51°57' E 004°08'0 0.0
2017-Aug-16 23:00N 51°57' E 004°08'0 0.0
2017-Aug-16 22:30N 51°57' E 004°08'0 0.0
2017-Aug-16 21:58N 51°57' E 004°08'0 0.0
2017-Aug-16 21:30N 51°57' E 004°08'0 0.0
2017-Aug-16 21:00N 51°57' E 004°08'0 0.0
2017-Aug-16 20:30N 51°57' E 004°08'0 0.0
2017-Aug-16 20:00N 51°57' E 004°08'0 0.0
2017-Aug-16 19:30N 51°57' E 004°08'0 0.0
2017-Aug-16 19:00N 51°57' E 004°08'0 0.0
2017-Aug-16 18:30N 51°57' E 004°08'0 0.0
2017-Aug-16 18:00N 51°57' E 004°08'0 0.0
2017-Aug-16 17:30N 51°57' E 004°08'0 0.0
2017-Aug-16 17:00N 51°57' E 004°08'0 0.0
2017-Aug-16 16:30N 51°57' E 004°08'0 0.0
2017-Aug-16 16:00N 51°57' E 004°08'0 0.0
2017-Aug-16 15:30N 51°57' E 004°08'0 0.0
2017-Aug-16 15:00N 51°57' E 004°08'0 0.0
2017-Aug-16 14:30N 51°57' E 004°08'0 0.0
2017-Aug-16 13:57N 51°57' E 004°08'0 0.0
2017-Aug-16 13:30N 51°57' E 004°08'0 0.0
2017-Aug-16 12:58N 51°57' E 004°08'0 0.0
2017-Aug-16 12:30N 51°57' E 004°08'0 0.0
2017-Aug-16 12:00N 51°57' E 004°08'0 0.0
2017-Aug-16 11:30N 51°57' E 004°08'0 0.0
2017-Aug-16 11:00N 51°57' E 004°08'0 0.0
2017-Aug-16 10:30N 51°57' E 004°08'0 0.0
2017-Aug-16 10:00N 51°57' E 004°08'0 0.0
2017-Aug-16 09:30N 51°57' E 004°08'0 0.0
2017-Aug-16 09:00N 51°57' E 004°08'0 0.0
2017-Aug-16 08:30N 51°57' E 004°08'0 0.0
2017-Aug-16 08:00N 51°57' E 004°08'0 0.0
2017-Aug-16 07:30N 51°57' E 004°08'0 0.0
2017-Aug-16 07:00N 51°57' E 004°08'0 0.0
2017-Aug-16 06:22N 51°57' E 004°08'0 0.0
2017-Aug-16 05:59N 51°57' E 004°08'0 0.0
2017-Aug-16 05:30N 51°57' E 004°08'0 0.0
2017-Aug-16 05:00N 51°57' E 004°08'0 0.0
2017-Aug-16 04:30N 51°57' E 004°08'0 0.0
2017-Aug-16 04:00N 51°57' E 004°08'0 0.0
2017-Aug-16 03:30N 51°57' E 004°08'0 0.0
2017-Aug-16 03:00N 51°57' E 004°08'0 0.0
2017-Aug-16 02:30N 51°57' E 004°08'0 0.0
2017-Aug-16 02:00N 51°57' E 004°08'0 0.4
2017-Aug-16 01:30N 51°57' E 004°08'2 3.5
2017-Aug-16 01:00N 51°59' E 004°06'714.2
2017-Aug-16 00:30N 51°55' E 004°15'510.9
2017-Aug-16 00:01N 51°51' E 004°22'611.3
2017-Aug-15 23:30N 51°50' E 004°31'4 8.7
2017-Aug-15 23:01N 51°48' E 004°37'0 0.1
2017-Aug-15 22:31N 51°48' E 004°37'0 0.0
2017-Aug-15 22:01N 51°48' E 004°37'0 0.0
2017-Aug-15 21:31N 51°48' E 004°37'0 0.0
2017-Aug-15 21:01N 51°48' E 004°37'0 0.0
2017-Aug-15 20:31N 51°48' E 004°37'0 0.0
2017-Aug-15 20:01N 51°48' E 004°37'0 0.0
2017-Aug-15 19:31N 51°48' E 004°37'0 0.0
2017-Aug-15 19:00N 51°48' E 004°37'0 0.0
2017-Aug-15 18:31N 51°48' E 004°37'0 0.0
2017-Aug-15 18:01N 51°48' E 004°37'0 0.0
2017-Aug-15 17:31N 51°48' E 004°37'0 0.0
2017-Aug-15 17:01N 51°48' E 004°37'0 0.0
2017-Aug-15 16:31N 51°48' E 004°37'0 0.0
2017-Aug-15 16:01N 51°48' E 004°37'0 0.0
2017-Aug-15 15:31N 51°48' E 004°37'0 0.0
2017-Aug-15 15:01N 51°48' E 004°37'0 0.0
2017-Aug-15 14:31N 51°48' E 004°37'0 0.0
2017-Aug-15 14:01N 51°48' E 004°37'0 0.0
2017-Aug-15 13:31N 51°48' E 004°37'0 0.0
2017-Aug-15 13:01N 51°48' E 004°37'0 0.0
2017-Aug-15 12:31N 51°48' E 004°37'0 0.0
2017-Aug-15 12:01N 51°48' E 004°37'0 0.0
2017-Aug-15 11:31N 51°48' E 004°37'0 0.0
2017-Aug-15 11:01N 51°48' E 004°37'0 0.0
2017-Aug-15 10:31N 51°48' E 004°37'0 0.0
2017-Aug-15 10:01N 51°48' E 004°37'0 0.0
2017-Aug-15 09:31N 51°48' E 004°37'0 0.0
2017-Aug-15 09:01N 51°48' E 004°37'0 0.0
2017-Aug-15 08:31N 51°48' E 004°37'0 0.0
2017-Aug-15 08:01N 51°48' E 004°37'0 0.0
2017-Aug-15 07:31N 51°48' E 004°37'0 0.0
2017-Aug-15 07:01N 51°48' E 004°37'0 0.0
2017-Aug-15 06:31N 51°48' E 004°37'0 0.0
2017-Aug-15 06:01N 51°48' E 004°37'0 0.0
2017-Aug-15 05:31N 51°48' E 004°37'0 0.0
2017-Aug-15 05:01N 51°48' E 004°37'0 0.0
2017-Aug-15 04:31N 51°48' E 004°37'0 0.0
2017-Aug-15 04:01N 51°48' E 004°37'0 0.0
2017-Aug-15 03:31N 51°48' E 004°37'0 0.0
2017-Aug-15 03:00N 51°48' E 004°37'0 0.0
2017-Aug-15 02:30N 51°48' E 004°37'0 0.0
2017-Aug-15 02:01N 51°48' E 004°37'0 0.0
2017-Aug-15 01:30N 51°48' E 004°37'0 0.0
2017-Aug-15 01:01N 51°48' E 004°37'0 0.0
2017-Aug-15 00:31N 51°48' E 004°37'0 0.0
2017-Aug-15 00:01N 51°48' E 004°37'0 0.0
2017-Aug-14 23:31N 51°48' E 004°37'0 0.0
2017-Aug-14 23:01N 51°48' E 004°37'0 0.0
2017-Aug-14 22:31N 51°48' E 004°37'0 0.0
2017-Aug-14 22:01N 51°48' E 004°37'0 0.0
2017-Aug-14 21:31N 51°48' E 004°37'0 0.0
2017-Aug-14 21:00N 51°48' E 004°37'0 0.0
2017-Aug-14 20:31N 51°48' E 004°37'0 0.0
2017-Aug-14 20:00N 51°48' E 004°37'0 0.0
2017-Aug-14 19:31N 51°48' E 004°37'0 0.0
2017-Aug-14 19:01N 51°48' E 004°37'0 0.0
2017-Aug-14 18:31N 51°48' E 004°37'0 0.0
2017-Aug-14 18:01N 51°48' E 004°37'0 0.0
2017-Aug-14 17:31N 51°48' E 004°37'0 0.0
2017-Aug-14 17:01N 51°48' E 004°37'0 0.0
2017-Aug-14 16:31N 51°48' E 004°37'0 0.0
2017-Aug-14 16:00N 51°48' E 004°37'0 0.0
2017-Aug-14 15:31N 51°48' E 004°37'0 0.0
2017-Aug-14 15:01N 51°48' E 004°37'0 0.0
2017-Aug-14 14:31N 51°48' E 004°37'0 0.0
2017-Aug-14 14:01N 51°48' E 004°37'0 0.0
2017-Aug-14 13:31N 51°48' E 004°37'0 0.7
2017-Aug-14 13:00N 51°48' E 004°37'3 5.4
2017-Aug-14 12:31N 51°50' E 004°33'4 8.4
2017-Aug-14 12:00N 51°50' E 004°26'4 7.8
2017-Aug-14 11:30N 51°52' E 004°20'2 4.8
2017-Aug-14 11:00N 51°54' E 004°19'4 7.3
2017-Aug-14 10:30N 51°55' E 004°14'4 8.3
2017-Aug-14 10:00N 51°58' E 004°08'5 9.2
2017-Aug-14 09:31N 51°60' E 004°01'510.3
2017-Aug-14 09:00N 52°00' E 003°53'5 9.8
2017-Aug-14 08:30N 51°59' E 003°45'713.8
2017-Aug-14 08:00N 51°57' E 003°34'4 8.8
2017-Aug-14 07:30N 51°56' E 003°28'1611.3
2017-Aug-14 06:06N 51°51' E 003°03'111.6
2017-Aug-14 06:00N 51°50' E 003°01'811.6
2017-Aug-14 05:21N 51°48' E 002°50'511.8
2017-Aug-14 04:53N 51°46' E 002°42'411.7
2017-Aug-14 04:31N 51°44' E 002°36'611.7
2017-Aug-14 04:00N 51°39' E 002°30'611.6
2017-Aug-14 03:30N 51°35' E 002°23'611.4
2017-Aug-14 03:00N 51°31' E 002°17'610.9
2017-Aug-14 02:30N 51°26' E 002°11'510.1
2017-Aug-14 02:00N 51°22' E 002°07'510.2
2017-Aug-14 01:30N 51°17' E 002°05'5 9.3
2017-Aug-14 01:00N 51°13' E 002°01'5 9.0
2017-Aug-14 00:30N 51°11' E 001°55'4 8.6
2017-Aug-14 00:00N 51°09' E 001°49'4 8.1
2017-Aug-13 23:30N 51°06' E 001°44'4 7.9
2017-Aug-13 23:00N 51°03' E 001°40'4 8.0
2017-Aug-13 22:30N 51°00' E 001°36'4 8.1
2017-Aug-13 22:00N 50°57' E 001°32'4 8.2
2017-Aug-13 21:30N 50°54' E 001°28'5 8.9
2017-Aug-13 20:58N 50°49' E 001°27'4 9.4
2017-Aug-13 20:30N 50°45' E 001°25'50 9.7
2017-Aug-13 15:22N 50°20' E 000°17'410.5
2017-Aug-13 14:59N 50°19' E 000°11'510.8
2017-Aug-13 14:30N 50°18' E 000°03'611.4
2017-Aug-13 14:01N 50°17' W 000°05'611.9
2017-Aug-13 13:30N 50°15' W 000°14'612.4
2017-Aug-13 13:00N 50°14' W 000°24'3613.3
2017-Aug-13 10:17N 50°05' W 001°19'413.1
2017-Aug-13 10:00N 50°05' W 001°24'612.5
2017-Aug-13 09:31N 50°03' W 001°34'611.9
2017-Aug-13 09:01N 50°02' W 001°43'611.2
2017-Aug-13 08:31N 50°01' W 001°51'18 9.7
2017-Aug-13 06:39N 49°57' W 002°18'1 8.5
2017-Aug-13 06:30N 49°56' W 002°20'4 8.3
2017-Aug-13 06:00N 49°55' W 002°27'4 8.1
2017-Aug-13 05:30N 49°54' W 002°33'4 8.0
2017-Aug-13 05:00N 49°53' W 002°39'4 8.1
2017-Aug-13 04:30N 49°52' W 002°45'4 8.4
2017-Aug-13 04:00N 49°51' W 002°51'4 8.8
2017-Aug-13 03:30N 49°50' W 002°58'5 9.2
2017-Aug-13 03:01N 49°50' W 003°05'5 9.4
2017-Aug-13 02:31N 49°50' W 003°12'5 9.7
2017-Aug-13 02:00N 49°50' W 003°19'510.1
2017-Aug-13 01:31N 49°50' W 003°27'510.3
2017-Aug-13 01:01N 49°50' W 003°35'510.4
2017-Aug-13 00:30N 49°50' W 003°43'510.5
2017-Aug-13 00:01N 49°51' W 003°51'510.8
2017-Aug-12 23:30N 49°51' W 003°60'711.0
2017-Aug-12 22:52N 49°51' W 004°11'711.2
2017-Aug-12 22:13N 49°51' W 004°22'211.4
2017-Aug-12 22:00N 49°51' W 004°26'711.5
2017-Aug-12 21:22N 49°51' W 004°37'511.7
2017-Aug-12 20:56N 49°51' W 004°45'611.6
2017-Aug-12 20:22N 49°51' W 004°55'56 8.0
2017-Aug-12 13:26N 50°28' W 006°01'510.9
2017-Aug-12 12:57N 50°33' W 006°01'9210.6
2017-Aug-12 04:20N 52°05' W 005°54'613.3
2017-Aug-12 03:51N 52°11' W 005°54'412.9
2017-Aug-12 03:30N 52°16' W 005°54'613.0
2017-Aug-12 03:00N 52°22' W 005°53'1312.1
2017-Aug-12 01:56N 52°35' W 005°53'4 0.1
2017-Aug-10 10:18N 52°31' W 005°50'412.9
2017-Aug-10 10:00N 52°28' W 005°49'612.9
2017-Aug-10 09:30N 52°21' W 005°49'612.7
2017-Aug-10 09:01N 52°15' W 005°48'612.6
2017-Aug-10 08:31N 52°09' W 005°48'612.7
2017-Aug-10 08:00N 52°02' W 005°48'  
Track history (hours):
 
Tides and Currents Weather Stations Pressure Air Temp Water Temp Dewpoint Dewpoint Depression Visibility Wind Speed Wind Dir Waves Ship Positions

Schillplate

Last reported at 2017-Aug-20 07:50 UTC. Time now 2017-Aug-22 20:33 UTC.
Position N 57°46' W 002°09'.

; draft 4.5 m.

Type: Cargo ship. MMSI: 236111603.

Date/timePositionNaut miles runAvg speedWind from/ knotsBaromVisibWave heightAir tempDewpointWater temp
2017-Aug-20 07:50N 57°46' W 002°09'3 9.7
2017-Aug-20 07:30N 57°45' W 002°03'5 9.4
2017-Aug-20 07:00N 57°45' W 001°55'5 9.7
2017-Aug-20 06:30N 57°43' W 001°46'510.1
2017-Aug-20 06:00N 57°41' W 001°38'510.5
2017-Aug-20 05:30N 57°38' W 001°30'196 9.8
2017-Aug-19 09:35N 54°34' E 000°32'110.8
2017-Aug-19 09:27N 54°33' E 000°33'510.8
2017-Aug-19 09:00N 54°28' E 000°35'18011.2
2017-Aug-18 17:00N 52°06' E 003°40'0 0.0
2017-Aug-18 16:30N 52°06' E 003°40'0 0.0
2017-Aug-18 16:00N 52°06' E 003°40'0 0.0
2017-Aug-18 15:30N 52°06' E 003°40'0 0.0
2017-Aug-18 15:00N 52°06' E 003°40'3 7.1
2017-Aug-18 14:30N 52°05' E 003°45'10 9.5
2017-Aug-18 13:31N 52°01' E 003°59'510.8
2017-Aug-18 13:00N 51°58' E 004°07'1 2.8
2017-Aug-18 12:30N 51°57' E 004°08'0 0.0
2017-Aug-18 12:00N 51°57' E 004°08'0 0.0
2017-Aug-18 11:30N 51°57' E 004°08'0 0.0
2017-Aug-18 11:00N 51°57' E 004°08'0 0.0
2017-Aug-18 10:30N 51°57' E 004°08'0 0.0
2017-Aug-18 10:00N 51°57' E 004°08'0 0.0
2017-Aug-18 09:30N 51°57' E 004°08'0 0.0
2017-Aug-18 09:00N 51°57' E 004°08'0 0.0
2017-Aug-18 08:30N 51°57' E 004°08'0 0.0
2017-Aug-18 08:00N 51°57' E 004°08'0 0.0
2017-Aug-18 07:30N 51°57' E 004°08'0 0.0
2017-Aug-18 07:00N 51°57' E 004°08'0 0.0
2017-Aug-18 06:30N 51°57' E 004°08'0 0.0
2017-Aug-18 06:00N 51°57' E 004°08'0 0.0
2017-Aug-18 05:30N 51°57' E 004°08'0 0.0
2017-Aug-18 05:00N 51°57' E 004°08'0 0.0
2017-Aug-18 04:30N 51°57' E 004°08'0 0.0
2017-Aug-18 04:00N 51°57' E 004°08'0 0.0
2017-Aug-18 03:30N 51°57' E 004°08'0 0.0
2017-Aug-18 03:00N 51°57' E 004°08'0 0.0
2017-Aug-18 02:30N 51°57' E 004°08'0 0.0
2017-Aug-18 02:00N 51°57' E 004°08'0 0.0
2017-Aug-18 01:30N 51°57' E 004°08'0 0.0
2017-Aug-18 01:00N 51°57' E 004°08'0 0.0
2017-Aug-18 00:30N 51°57' E 004°08'0 0.0
2017-Aug-18 00:00N 51°57' E 004°08'0 0.0
2017-Aug-17 23:30N 51°57' E 004°08'0 0.0
2017-Aug-17 23:00N 51°57' E 004°08'0 0.0
2017-Aug-17 22:30N 51°57' E 004°08'0 0.0
2017-Aug-17 22:00N 51°57' E 004°08'0 0.3
2017-Aug-17 21:31N 51°57' E 004°08'1 1.0
2017-Aug-17 21:00N 51°57' E 004°08'0 0.0
2017-Aug-17 20:28N 51°57' E 004°08'0 0.0
2017-Aug-17 20:00N 51°57' E 004°08'0 0.0
2017-Aug-17 19:30N 51°57' E 004°08'0 0.0
2017-Aug-17 19:00N 51°57' E 004°08'0 0.0
2017-Aug-17 18:30N 51°57' E 004°08'0 0.0
2017-Aug-17 18:00N 51°57' E 004°08'0 0.0
2017-Aug-17 17:30N 51°57' E 004°08'0 0.0
2017-Aug-17 17:00N 51°57' E 004°08'0 0.0
2017-Aug-17 16:30N 51°57' E 004°08'0 0.0
2017-Aug-17 16:00N 51°57' E 004°08'0 0.0
2017-Aug-17 15:30N 51°57' E 004°08'0 0.0
2017-Aug-17 15:00N 51°57' E 004°08'0 0.0
2017-Aug-17 14:30N 51°57' E 004°08'0 0.0
2017-Aug-17 14:00N 51°57' E 004°08'0 0.0
2017-Aug-17 13:29N 51°57' E 004°08'0 0.0
2017-Aug-17 13:00N 51°57' E 004°08'0 0.0
2017-Aug-17 12:30N 51°57' E 004°08'0 0.0
2017-Aug-17 12:00N 51°57' E 004°08'0 0.0
2017-Aug-17 11:30N 51°57' E 004°08'0 0.0
2017-Aug-17 11:00N 51°57' E 004°08'0 0.0
2017-Aug-17 10:30N 51°57' E 004°08'0 0.0
2017-Aug-17 10:00N 51°57' E 004°08'0 0.0
2017-Aug-17 09:27N 51°57' E 004°08'0 0.0
2017-Aug-17 09:00N 51°57' E 004°08'0 0.0
2017-Aug-17 08:28N 51°57' E 004°08'0 0.0
2017-Aug-17 08:00N 51°57' E 004°08'0 0.0
2017-Aug-17 07:30N 51°57' E 004°08'0 0.0
2017-Aug-17 07:00N 51°57' E 004°08'0 0.0
2017-Aug-17 06:30N 51°57' E 004°08'0 0.0
2017-Aug-17 06:00N 51°57' E 004°08'0 0.0
2017-Aug-17 05:30N 51°57' E 004°08'0 0.0
2017-Aug-17 05:00N 51°57' E 004°08'0 0.0
2017-Aug-17 04:30N 51°57' E 004°08'0 0.0
2017-Aug-17 04:00N 51°57' E 004°08'0 0.0
2017-Aug-17 03:30N 51°57' E 004°08'0 0.0
2017-Aug-17 03:00N 51°57' E 004°08'0 0.0
2017-Aug-17 02:28N 51°57' E 004°08'0 0.0
2017-Aug-17 02:00N 51°57' E 004°08'0 0.0
2017-Aug-17 01:30N 51°57' E 004°08'0 0.0
2017-Aug-17 01:00N 51°57' E 004°08'0 0.0
2017-Aug-17 00:30N 51°57' E 004°08'0 0.0
2017-Aug-17 00:00N 51°57' E 004°08'0 0.0
2017-Aug-16 23:30N 51°57' E 004°08'0 0.0
2017-Aug-16 23:00N 51°57' E 004°08'0 0.0
2017-Aug-16 22:30N 51°57' E 004°08'0 0.0
2017-Aug-16 21:58N 51°57' E 004°08'0 0.0
2017-Aug-16 21:30N 51°57' E 004°08'0 0.0
2017-Aug-16 21:00N 51°57' E 004°08'0 0.0
2017-Aug-16 20:30N 51°57' E 004°08'0 0.0
2017-Aug-16 20:00N 51°57' E 004°08'0 0.0
2017-Aug-16 19:30N 51°57' E 004°08'0 0.0
2017-Aug-16 19:00N 51°57' E 004°08'0 0.0
2017-Aug-16 18:30N 51°57' E 004°08'0 0.0
2017-Aug-16 18:00N 51°57' E 004°08'0 0.0
2017-Aug-16 17:30N 51°57' E 004°08'0 0.0
2017-Aug-16 17:00N 51°57' E 004°08'0 0.0
2017-Aug-16 16:30N 51°57' E 004°08'0 0.0
2017-Aug-16 16:00N 51°57' E 004°08'0 0.0
2017-Aug-16 15:30N 51°57' E 004°08'0 0.0
2017-Aug-16 15:00N 51°57' E 004°08'0 0.0
2017-Aug-16 14:30N 51°57' E 004°08'0 0.0
2017-Aug-16 13:57N 51°57' E 004°08'0 0.0
2017-Aug-16 13:30N 51°57' E 004°08'0 0.0
2017-Aug-16 12:58N 51°57' E 004°08'0 0.0
2017-Aug-16 12:30N 51°57' E 004°08'0 0.0
2017-Aug-16 12:00N 51°57' E 004°08'0 0.0
2017-Aug-16 11:30N 51°57' E 004°08'0 0.0
2017-Aug-16 11:00N 51°57' E 004°08'0 0.0
2017-Aug-16 10:30N 51°57' E 004°08'0 0.0
2017-Aug-16 10:00N 51°57' E 004°08'0 0.0
2017-Aug-16 09:30N 51°57' E 004°08'0 0.0
2017-Aug-16 09:00N 51°57' E 004°08'0 0.0
2017-Aug-16 08:30N 51°57' E 004°08'0 0.0
2017-Aug-16 08:00N 51°57' E 004°08'0 0.0
2017-Aug-16 07:30N 51°57' E 004°08'0 0.0
2017-Aug-16 07:00N 51°57' E 004°08'0 0.0
2017-Aug-16 06:22N 51°57' E 004°08'0 0.0
2017-Aug-16 05:59N 51°57' E 004°08'0 0.0
2017-Aug-16 05:30N 51°57' E 004°08'0 0.0
2017-Aug-16 05:00N 51°57' E 004°08'0 0.0
2017-Aug-16 04:30N 51°57' E 004°08'0 0.0
2017-Aug-16 04:00N 51°57' E 004°08'0 0.0
2017-Aug-16 03:30N 51°57' E 004°08'0 0.0
2017-Aug-16 03:00N 51°57' E 004°08'0 0.0
2017-Aug-16 02:30N 51°57' E 004°08'0 0.0
2017-Aug-16 02:00N 51°57' E 004°08'0 0.4
2017-Aug-16 01:30N 51°57' E 004°08'2 3.5
2017-Aug-16 01:00N 51°59' E 004°06'714.2
2017-Aug-16 00:30N 51°55' E 004°15'510.9
2017-Aug-16 00:01N 51°51' E 004°22'611.3
2017-Aug-15 23:30N 51°50' E 004°31'4 8.7
2017-Aug-15 23:01N 51°48' E 004°37'0 0.1
2017-Aug-15 22:31N 51°48' E 004°37'0 0.0
2017-Aug-15 22:01N 51°48' E 004°37'0 0.0
2017-Aug-15 21:31N 51°48' E 004°37'0 0.0
2017-Aug-15 21:01N 51°48' E 004°37'0 0.0
2017-Aug-15 20:31N 51°48' E 004°37'0 0.0
2017-Aug-15 20:01N 51°48' E 004°37'0 0.0
2017-Aug-15 19:31N 51°48' E 004°37'0 0.0
2017-Aug-15 19:00N 51°48' E 004°37'0 0.0
2017-Aug-15 18:31N 51°48' E 004°37'0 0.0
2017-Aug-15 18:01N 51°48' E 004°37'0 0.0
2017-Aug-15 17:31N 51°48' E 004°37'0 0.0
2017-Aug-15 17:01N 51°48' E 004°37'0 0.0
2017-Aug-15 16:31N 51°48' E 004°37'0 0.0
2017-Aug-15 16:01N 51°48' E 004°37'0 0.0
2017-Aug-15 15:31N 51°48' E 004°37'0 0.0
2017-Aug-15 15:01N 51°48' E 004°37'0 0.0
2017-Aug-15 14:31N 51°48' E 004°37'0 0.0
2017-Aug-15 14:01N 51°48' E 004°37'0 0.0
2017-Aug-15 13:31N 51°48' E 004°37'0 0.0
2017-Aug-15 13:01N 51°48' E 004°37'0 0.0
2017-Aug-15 12:31N 51°48' E 004°37'0 0.0
2017-Aug-15 12:01N 51°48' E 004°37'0 0.0
2017-Aug-15 11:31N 51°48' E 004°37'0 0.0
2017-Aug-15 11:01N 51°48' E 004°37'0 0.0
2017-Aug-15 10:31N 51°48' E 004°37'0 0.0
2017-Aug-15 10:01N 51°48' E 004°37'0 0.0
2017-Aug-15 09:31N 51°48' E 004°37'0 0.0
2017-Aug-15 09:01N 51°48' E 004°37'0 0.0
2017-Aug-15 08:31N 51°48' E 004°37'0 0.0
2017-Aug-15 08:01N 51°48' E 004°37'0 0.0
2017-Aug-15 07:31N 51°48' E 004°37'0 0.0
2017-Aug-15 07:01N 51°48' E 004°37'0 0.0
2017-Aug-15 06:31N 51°48' E 004°37'0 0.0
2017-Aug-15 06:01N 51°48' E 004°37'0 0.0
2017-Aug-15 05:31N 51°48' E 004°37'0 0.0
2017-Aug-15 05:01N 51°48' E 004°37'0 0.0
2017-Aug-15 04:31N 51°48' E 004°37'0 0.0
2017-Aug-15 04:01N 51°48' E 004°37'0 0.0
2017-Aug-15 03:31N 51°48' E 004°37'0 0.0
2017-Aug-15 03:00N 51°48' E 004°37'0 0.0
2017-Aug-15 02:30N 51°48' E 004°37'0 0.0
2017-Aug-15 02:01N 51°48' E 004°37'0 0.0
2017-Aug-15 01:30N 51°48' E 004°37'0 0.0
2017-Aug-15 01:01N 51°48' E 004°37'0 0.0
2017-Aug-15 00:31N 51°48' E 004°37'0 0.0
2017-Aug-15 00:01N 51°48' E 004°37'0 0.0
2017-Aug-14 23:31N 51°48' E 004°37'0 0.0
2017-Aug-14 23:01N 51°48' E 004°37'0 0.0
2017-Aug-14 22:31N 51°48' E 004°37'0 0.0
2017-Aug-14 22:01N 51°48' E 004°37'0 0.0
2017-Aug-14 21:31N 51°48' E 004°37'0 0.0
2017-Aug-14 21:00N 51°48' E 004°37'0 0.0
2017-Aug-14 20:31N 51°48' E 004°37'0 0.0
2017-Aug-14 20:00N 51°48' E 004°37'0 0.0
2017-Aug-14 19:31N 51°48' E 004°37'0 0.0
2017-Aug-14 19:01N 51°48' E 004°37'0 0.0
2017-Aug-14 18:31N 51°48' E 004°37'0 0.0
2017-Aug-14 18:01N 51°48' E 004°37'0 0.0
2017-Aug-14 17:31N 51°48' E 004°37'0 0.0
2017-Aug-14 17:01N 51°48' E 004°37'0 0.0
2017-Aug-14 16:31N 51°48' E 004°37'0 0.0
2017-Aug-14 16:00N 51°48' E 004°37'0 0.0
2017-Aug-14 15:31N 51°48' E 004°37'0 0.0
2017-Aug-14 15:01N 51°48' E 004°37'0 0.0
2017-Aug-14 14:31N 51°48' E 004°37'0 0.0
2017-Aug-14 14:01N 51°48' E 004°37'0 0.0
2017-Aug-14 13:31N 51°48' E 004°37'0 0.7
2017-Aug-14 13:00N 51°48' E 004°37'3 5.4
2017-Aug-14 12:31N 51°50' E 004°33'4 8.4
2017-Aug-14 12:00N 51°50' E 004°26'4 7.8
2017-Aug-14 11:30N 51°52' E 004°20'2 4.8
2017-Aug-14 11:00N 51°54' E 004°19'4 7.3
2017-Aug-14 10:30N 51°55' E 004°14'4 8.3
2017-Aug-14 10:00N 51°58' E 004°08'5 9.2
2017-Aug-14 09:31N 51°60' E 004°01'510.3
2017-Aug-14 09:00N 52°00' E 003°53'5 9.8
2017-Aug-14 08:30N 51°59' E 003°45'713.8
2017-Aug-14 08:00N 51°57' E 003°34'4 8.8
2017-Aug-14 07:30N 51°56' E 003°28'1611.3
2017-Aug-14 06:06N 51°51' E 003°03'111.6
2017-Aug-14 06:00N 51°50' E 003°01'811.6
2017-Aug-14 05:21N 51°48' E 002°50'511.8
2017-Aug-14 04:53N 51°46' E 002°42'411.7
2017-Aug-14 04:31N 51°44' E 002°36'611.7
2017-Aug-14 04:00N 51°39' E 002°30'611.6
2017-Aug-14 03:30N 51°35' E 002°23'611.4
2017-Aug-14 03:00N 51°31' E 002°17'610.9
2017-Aug-14 02:30N 51°26' E 002°11'510.1
2017-Aug-14 02:00N 51°22' E 002°07'510.2
2017-Aug-14 01:30N 51°17' E 002°05'5 9.3
2017-Aug-14 01:00N 51°13' E 002°01'5 9.0
2017-Aug-14 00:30N 51°11' E 001°55'4 8.6
2017-Aug-14 00:00N 51°09' E 001°49'4 8.1
2017-Aug-13 23:30N 51°06' E 001°44'4 7.9
2017-Aug-13 23:00N 51°03' E 001°40'4 8.0
2017-Aug-13 22:30N 51°00' E 001°36'4 8.1
2017-Aug-13 22:00N 50°57' E 001°32'4 8.2
2017-Aug-13 21:30N 50°54' E 001°28'5 8.9
2017-Aug-13 20:58N 50°49' E 001°27'4 9.4
2017-Aug-13 20:30N 50°45' E 001°25'50 9.7
2017-Aug-13 15:22N 50°20' E 000°17'410.5
2017-Aug-13 14:59N 50°19' E 000°11'510.8
2017-Aug-13 14:30N 50°18' E 000°03'611.4
2017-Aug-13 14:01N 50°17' W 000°05'611.9
2017-Aug-13 13:30N 50°15' W 000°14'612.4
2017-Aug-13 13:00N 50°14' W 000°24'3613.3
2017-Aug-13 10:17N 50°05' W 001°19'413.1
2017-Aug-13 10:00N 50°05' W 001°24'612.5
2017-Aug-13 09:31N 50°03' W 001°34'611.9
2017-Aug-13 09:01N 50°02' W 001°43'611.2
2017-Aug-13 08:31N 50°01' W 001°51'18 9.7
2017-Aug-13 06:39N 49°57' W 002°18'1 8.5
2017-Aug-13 06:30N 49°56' W 002°20'4 8.3
2017-Aug-13 06:00N 49°55' W 002°27'4 8.1
2017-Aug-13 05:30N 49°54' W 002°33'4 8.0
2017-Aug-13 05:00N 49°53' W 002°39'4 8.1
2017-Aug-13 04:30N 49°52' W 002°45'4 8.4
2017-Aug-13 04:00N 49°51' W 002°51'4 8.8
2017-Aug-13 03:30N 49°50' W 002°58'5 9.2
2017-Aug-13 03:01N 49°50' W 003°05'5 9.4
2017-Aug-13 02:31N 49°50' W 003°12'5 9.7
2017-Aug-13 02:00N 49°50' W 003°19'510.1
2017-Aug-13 01:31N 49°50' W 003°27'510.3
2017-Aug-13 01:01N 49°50' W 003°35'510.4
2017-Aug-13 00:30N 49°50' W 003°43'510.5
2017-Aug-13 00:01N 49°51' W 003°51'510.8
2017-Aug-12 23:30N 49°51' W 003°60'711.0
2017-Aug-12 22:52N 49°51' W 004°11'711.2
2017-Aug-12 22:13N 49°51' W 004°22'211.4
2017-Aug-12 22:00N 49°51' W 004°26'711.5
2017-Aug-12 21:22N 49°51' W 004°37'511.7
2017-Aug-12 20:56N 49°51' W 004°45'611.6
2017-Aug-12 20:22N 49°51' W 004°55'56 8.0
2017-Aug-12 13:26N 50°28' W 006°01'510.9
2017-Aug-12 12:57N 50°33' W 006°01'9210.6
2017-Aug-12 04:20N 52°05' W 005°54'613.3
2017-Aug-12 03:51N 52°11' W 005°54'412.9
2017-Aug-12 03:30N 52°16' W 005°54'613.0
2017-Aug-12 03:00N 52°22' W 005°53'1312.1
2017-Aug-12 01:56N 52°35' W 005°53'4 0.1
2017-Aug-10 10:18N 52°31' W 005°50'412.9
2017-Aug-10 10:00N 52°28' W 005°49'612.9
2017-Aug-10 09:30N 52°21' W 005°49'612.7
2017-Aug-10 09:01N 52°15' W 005°48'612.6
2017-Aug-10 08:31N 52°09' W 005°48'612.7
2017-Aug-10 08:00N 52°02' W 005°48'  

Dump ship's entire track history